Time;durP1;ratioP1;P1;durP2;ratioP2;P2;SDS_P1;SDS_P2;PMS_P1;PMS_P2;Temp;Humidity;BMP_temperature;BMP_pressure;BME280_temperature;BME280_humidity;BME280_pressure;Samples;Min_cycle;Max_cycle;Signal;HPM_P1;HPM_P2
2023/06/12 00:00:47;;;;;;;1.38;1.00;;;19.40;77.20;;;;;;4973426;28;20734;-65
2023/06/12 00:03:15;;;;;;;6.20;1.27;;;19.40;77.40;;;;;;4972367;28;20231;-65
2023/06/12 00:05:45;;;;;;;3.00;1.10;;;19.40;77.60;;;;;;4973603;28;20682;-66
2023/06/12 00:08:13;;;;;;;2.83;1.20;;;19.40;77.70;;;;;;4951522;28;20592;-66
2023/06/12 00:10:41;;;;;;;1.67;1.52;;;19.40;78.00;;;;;;4971040;28;20679;-66
2023/06/12 00:13:09;;;;;;;1.13;1.10;;;19.40;78.00;;;;;;4974270;28;20203;-65
2023/06/12 00:15:37;;;;;;;2.20;0.90;;;19.40;78.10;;;;;;4974066;28;20192;-65
2023/06/12 00:18:06;;;;;;;1.23;1.08;;;19.30;78.00;;;;;;4972981;28;20692;-64
2023/06/12 00:20:33;;;;;;;1.00;0.88;;;19.30;78.10;;;;;;4951508;28;20224;-65
2023/06/12 00:23:01;;;;;;;1.63;0.90;;;20.60;79.60;;;;;;4971726;28;20204;-65
2023/06/12 00:25:28;;;;;;;1.95;1.00;;;19.30;78.20;;;;;;4972227;28;20664;-65
2023/06/12 00:27:55;;;;;;;1.33;1.00;;;19.20;78.20;;;;;;4972553;28;20212;-65
2023/06/12 00:30:22;;;;;;;0.90;0.90;;;19.30;78.30;;;;;;4957224;28;20205;-65
2023/06/12 00:32:51;;;;;;;0.80;0.80;;;19.30;78.20;;;;;;4971877;28;20200;-64
2023/06/12 00:35:19;;;;;;;1.52;1.08;;;19.30;78.20;;;;;;4981149;28;20268;-66
2023/06/12 00:37:46;;;;;;;1.00;1.00;;;19.30;78.30;;;;;;4954672;28;20196;-65
2023/06/12 00:40:14;;;;;;;2.50;1.08;;;19.30;78.20;;;;;;4982274;28;20191;-66
2023/06/12 00:42:46;;;;;;;1.25;0.90;;;19.30;78.20;;;;;;4978047;28;20300;-66
2023/06/12 00:45:16;;;;;;;1.80;1.02;;;19.30;78.30;;;;;;4978049;28;20274;-66
2023/06/12 00:47:47;;;;;;;0.90;0.90;;;19.30;78.40;;;;;;4962967;28;20236;-66
2023/06/12 00:50:18;;;;;;;0.90;0.90;;;19.30;78.50;;;;;;4918278;28;1149992;-66
2023/06/12 00:52:48;;;;;;;0.80;0.80;;;19.30;78.40;;;;;;4975721;28;20231;-66
2023/06/12 00:55:16;;;;;;;1.15;0.90;;;19.20;78.40;;;;;;4957611;28;20200;-65
2023/06/12 00:57:46;;;;;;;1.00;0.95;;;19.20;78.50;;;;;;4971235;28;20673;-65
2023/06/12 01:03:03;;;;;;;3.40;0.70;;;19.10;78.50;;;;;;5321852;23;20548;-66
2023/06/12 01:05:35;;;;;;;0.85;0.85;;;19.10;78.60;;;;;;4947450;29;20259;-67
2023/06/12 01:08:28;;;;;;;2.15;0.90;;;19.10;78.70;;;;;;4951734;29;20295;-66
2023/06/12 01:11:05;;;;;;;1.08;1.08;;;19.10;78.70;;;;;;4934262;29;20202;-66
2023/06/12 01:13:33;;;;;;;0.73;0.73;;;19.10;78.70;;;;;;4934638;29;20314;-66
2023/06/12 01:16:00;;;;;;;2.28;0.90;;;19.10;78.70;;;;;;4934231;29;20304;-66
2023/06/12 01:18:29;;;;;;;0.90;0.90;;;19.10;79.00;;;;;;4960692;28;20316;-66
2023/06/12 01:21:01;;;;;;;0.80;0.80;;;19.10;78.80;;;;;;4965483;28;20189;-66
2023/06/12 01:23:55;;;;;;;1.13;1.00;;;19.10;78.70;;;;;;4934587;29;20197;-66
2023/06/12 01:26:42;;;;;;;0.68;0.68;;;19.10;78.80;;;;;;4943367;29;20559;-65
2023/06/12 01:29:37;;;;;;;1.05;0.85;;;19.00;78.90;;;;;;4934207;29;20327;-66
2023/06/12 01:32:08;;;;;;;0.95;0.95;;;19.00;78.90;;;;;;4911977;29;20296;-67
2023/06/12 01:34:43;;;;;;;0.90;0.90;;;19.00;79.10;;;;;;4933741;29;20301;-67
2023/06/12 01:37:17;;;;;;;0.90;0.90;;;18.90;79.10;;;;;;4951213;29;20516;-66
2023/06/12 01:39:54;;;;;;;1.00;1.00;;;18.90;79.10;;;;;;4934487;29;20204;-66
2023/06/12 01:42:23;;;;;;;1.75;0.95;;;18.90;79.30;;;;;;4950658;28;20243;-67
2023/06/12 01:44:51;;;;;;;0.90;0.90;;;18.80;79.30;;;;;;4934897;29;20201;-67
2023/06/12 01:47:20;;;;;;;1.15;0.90;;;18.80;79.30;;;;;;4933298;29;20221;-66
2023/06/12 01:49:49;;;;;;;0.93;0.93;;;18.80;79.40;;;;;;4933581;29;20225;-66
2023/06/12 01:52:16;;;;;;;0.93;0.93;;;18.70;79.40;;;;;;4935970;29;20197;-67
2023/06/12 01:54:45;;;;;;;2.80;0.85;;;18.70;79.40;;;;;;4933217;29;20209;-67
2023/06/12 01:57:12;;;;;;;1.58;1.48;;;18.70;79.50;;;;;;4948182;29;20228;-67
2023/06/12 01:59:41;;;;;;;0.95;0.95;;;18.70;79.50;;;;;;4938960;28;20691;-66
2023/06/12 02:02:09;;;;;;;1.00;0.90;;;18.70;79.50;;;;;;4936087;29;20245;-66
2023/06/12 02:04:39;;;;;;;1.05;0.95;;;18.70;79.50;;;;;;4942093;28;20208;-66
2023/06/12 02:07:07;;;;;;;1.05;1.02;;;18.70;79.60;;;;;;4946236;28;20275;-66
2023/06/12 02:09:34;;;;;;;1.42;1.33;;;18.70;79.50;;;;;;4952366;28;20215;-67
2023/06/12 02:12:01;;;;;;;1.02;1.02;;;18.70;79.60;;;;;;4942579;28;20275;-67
2023/06/12 02:14:29;;;;;;;1.27;1.15;;;18.70;79.60;;;;;;4934190;29;20301;-67
2023/06/12 02:16:56;;;;;;;1.40;1.00;;;18.70;79.70;;;;;;4960117;28;20205;-66
2023/06/12 02:19:25;;;;;;;0.90;0.90;;;18.70;79.80;;;;;;4933270;29;20308;-66
2023/06/12 02:21:54;;;;;;;0.90;0.90;;;18.70;79.70;;;;;;4933676;29;20576;-66
2023/06/12 02:24:25;;;;;;;0.80;0.80;;;18.60;79.70;;;;;;4951121;29;20197;-65
2023/06/12 02:26:52;;;;;;;0.88;0.88;;;18.60;79.70;;;;;;4955898;28;20618;-66
2023/06/12 02:29:19;;;;;;;0.90;0.90;;;18.60;79.80;;;;;;4941234;29;20221;-66
2023/06/12 02:31:51;;;;;;;0.95;0.95;;;18.60;79.70;;;;;;4933433;29;20614;-66
2023/06/12 02:34:19;;;;;;;0.93;0.93;;;18.60;79.60;;;;;;4949673;29;20197;-66
2023/06/12 02:36:48;;;;;;;0.85;0.85;;;18.60;79.60;;;;;;4956356;28;20251;-66
2023/06/12 02:39:30;;;;;;;0.90;0.90;;;18.60;79.60;;;;;;4925125;29;20273;-66
2023/06/12 02:41:59;;;;;;;1.10;1.10;;;18.60;79.60;;;;;;4945078;28;20295;-66
2023/06/12 02:44:29;;;;;;;1.00;1.00;;;18.60;79.60;;;;;;4943182;28;20243;-66
2023/06/12 02:46:58;;;;;;;0.90;0.90;;;18.50;79.70;;;;;;4955024;28;20288;-66
2023/06/12 02:49:33;;;;;;;2.83;1.08;;;18.50;79.80;;;;;;4950081;29;21000;-66
2023/06/12 02:52:01;;;;;;;0.98;0.98;;;18.50;79.80;;;;;;4931682;29;20585;-66
2023/06/12 02:54:30;;;;;;;0.93;0.93;;;18.50;79.80;;;;;;4929742;29;20241;-66
2023/06/12 02:57:01;;;;;;;1.10;1.10;;;18.50;79.70;;;;;;4931097;29;20293;-66
2023/06/12 02:59:28;;;;;;;1.40;1.30;;;18.60;79.80;;;;;;4925491;29;20214;-66
2023/06/12 03:02:00;;;;;;;0.90;0.90;;;18.60;79.70;;;;;;4946552;28;20280;-66
2023/06/12 03:04:39;;;;;;;1.00;1.00;;;18.60;79.60;;;;;;4936253;29;20906;-67
2023/06/12 03:07:06;;;;;;;1.10;1.10;;;18.60;79.60;;;;;;4950248;28;20284;-66
2023/06/12 03:09:36;;;;;;;0.90;0.90;;;18.60;79.70;;;;;;4936297;29;20338;-66
2023/06/12 03:12:03;;;;;;;1.98;1.00;;;18.60;79.70;;;;;;4939015;28;20210;-66
2023/06/12 03:14:33;;;;;;;2.65;1.20;;;18.60;79.70;;;;;;4938402;29;20733;-66
2023/06/12 03:17:01;;;;;;;1.00;1.00;;;18.50;79.60;;;;;;4951758;29;20682;-66
2023/06/12 03:19:28;;;;;;;1.00;0.90;;;18.50;79.70;;;;;;4934734;29;20566;-66
2023/06/12 03:21:55;;;;;;;1.00;0.90;;;18.50;79.70;;;;;;4932383;29;20268;-65
2023/06/12 03:24:24;;;;;;;1.33;1.23;;;18.50;79.70;;;;;;4935443;29;20205;-66
2023/06/12 03:26:52;;;;;;;1.40;1.17;;;18.50;79.80;;;;;;4952461;28;20542;-65
2023/06/12 03:29:19;;;;;;;0.80;0.80;;;18.50;79.80;;;;;;4951274;29;20305;-65
2023/06/12 03:31:46;;;;;;;0.90;0.90;;;18.60;79.90;;;;;;4953169;29;20642;-66
2023/06/12 03:34:15;;;;;;;2.38;0.80;;;18.60;79.80;;;;;;4953156;29;20543;-66
2023/06/12 03:36:43;;;;;;;1.20;1.20;;;18.60;79.80;;;;;;4934866;29;20714;-65
2023/06/12 03:39:14;;;;;;;0.95;0.95;;;18.60;79.80;;;;;;4936248;29;20213;-66
2023/06/12 03:41:54;;;;;;;1.10;1.00;;;18.60;79.80;;;;;;4939218;29;20205;-65
2023/06/12 03:44:23;;;;;;;1.02;0.98;;;18.60;79.80;;;;;;4936203;29;20212;-66
2023/06/12 03:46:51;;;;;;;1.10;1.10;;;18.60;79.90;;;;;;4938470;29;20288;-65
2023/06/12 03:49:19;;;;;;;1.08;0.98;;;18.60;80.00;;;;;;4934844;29;20224;-66
2023/06/12 03:51:47;;;;;;;1.58;1.48;;;18.60;80.00;;;;;;4935582;28;20263;-66
2023/06/12 03:54:15;;;;;;;1.83;1.73;;;18.70;80.10;;;;;;4930957;29;20205;-66
2023/06/12 03:56:43;;;;;;;2.03;1.92;;;18.70;80.10;;;;;;4953377;29;20292;-67
2023/06/12 03:59:13;;;;;;;1.83;1.50;;;18.70;80.20;;;;;;4945938;29;20186;-67
2023/06/12 04:01:42;;;;;;;1.40;1.30;;;18.70;80.10;;;;;;4924564;29;20202;-67
2023/06/12 04:04:10;;;;;;;6.78;1.60;;;18.70;80.20;;;;;;4950278;29;20245;-66
2023/06/12 04:06:40;;;;;;;2.05;1.10;;;18.70;80.20;;;;;;4932254;29;20227;-66
2023/06/12 04:09:08;;;;;;;1.42;1.33;;;18.80;80.20;;;;;;4934724;29;20209;-67
2023/06/12 04:11:38;;;;;;;3.42;1.30;;;18.80;80.30;;;;;;4947655;29;20256;-66
2023/06/12 04:14:06;;;;;;;0.95;0.95;;;18.80;80.20;;;;;;4935738;29;20213;-66
2023/06/12 04:16:34;;;;;;;1.40;1.30;;;18.90;80.30;;;;;;4951235;28;20200;-67
2023/06/12 04:19:03;;;;;;;1.27;1.10;;;18.90;80.20;;;;;;4934268;29;20197;-66
2023/06/12 04:21:33;;;;;;;1.40;1.10;;;18.90;80.20;;;;;;4935018;29;20300;-66
2023/06/12 04:24:01;;;;;;;1.02;0.95;;;18.90;80.10;;;;;;4952776;29;20221;-66
2023/06/12 04:26:28;;;;;;;2.38;1.00;;;19.00;80.20;;;;;;4935198;29;20554;-66
2023/06/12 04:28:56;;;;;;;0.90;0.90;;;18.90;80.00;;;;;;4935490;29;20221;-66
2023/06/12 04:31:26;;;;;;;0.90;0.90;;;19.00;80.00;;;;;;4934981;29;20219;-67
2023/06/12 04:33:55;;;;;;;1.23;1.20;;;19.10;79.80;;;;;;4952443;29;20568;-67
2023/06/12 04:36:23;;;;;;;0.90;0.90;;;19.20;79.70;;;;;;4934780;29;20212;-65
2023/06/12 04:38:51;;;;;;;1.00;1.00;;;19.20;79.50;;;;;;4934837;29;20205;-65
2023/06/12 04:41:19;;;;;;;0.95;0.80;;;19.30;79.40;;;;;;4935248;29;20213;-67
2023/06/12 04:43:48;;;;;;;0.95;0.95;;;19.30;80.00;;;;;;4932634;29;20236;-65
2023/06/12 04:46:19;;;;;;;0.90;0.90;;;19.30;79.10;;;;;;4952438;28;20299;-67
2023/06/12 04:48:47;;;;;;;0.90;0.90;;;19.40;79.00;;;;;;4934553;29;22090;-66
2023/06/12 04:51:16;;;;;;;2.40;1.17;;;19.40;78.90;;;;;;4951571;29;20367;-67
2023/06/12 04:53:43;;;;;;;1.10;1.10;;;19.40;78.90;;;;;;4932803;29;20205;-67
2023/06/12 04:56:12;;;;;;;1.00;1.00;;;19.40;78.60;;;;;;4935286;29;20220;-66
2023/06/12 04:58:41;;;;;;;2.53;1.15;;;19.40;78.50;;;;;;4932120;29;20656;-67
2023/06/12 05:01:10;;;;;;;1.10;1.10;;;19.50;78.50;;;;;;4932258;29;20212;-67
2023/06/12 05:03:40;;;;;;;0.90;0.90;;;19.50;78.30;;;;;;4934396;28;20233;-66
2023/06/12 05:06:08;;;;;;;1.15;1.10;;;19.60;78.20;;;;;;4935720;29;20209;-67
2023/06/12 05:08:37;;;;;;;0.90;0.90;;;19.60;78.50;;;;;;4934709;29;20209;-67
2023/06/12 05:11:04;;;;;;;0.90;0.90;;;19.70;78.00;;;;;;4952687;29;20252;-67
2023/06/12 05:13:32;;;;;;;0.80;0.80;;;19.70;77.70;;;;;;4935203;29;20201;-67
2023/06/12 05:16:00;;;;;;;0.95;0.95;;;19.80;77.70;;;;;;4934961;29;20295;-67
2023/06/12 05:18:27;;;;;;;0.93;0.90;;;19.80;77.40;;;;;;4950999;28;20193;-66
2023/06/12 05:20:58;;;;;;;1.33;0.90;;;19.90;77.10;;;;;;4952244;28;20208;-66
2023/06/12 05:23:25;;;;;;;0.80;0.80;;;19.80;76.70;;;;;;4934892;29;20264;-65
2023/06/12 05:25:53;;;;;;;0.70;0.70;;;19.90;76.60;;;;;;4934446;29;20229;-66
2023/06/12 05:28:21;;;;;;;0.70;0.70;;;19.90;76.30;;;;;;4934764;29;20208;-66
2023/06/12 05:30:48;;;;;;;1.85;0.68;;;20.10;76.50;;;;;;4951052;29;20317;-67
2023/06/12 05:33:16;;;;;;;1.15;0.90;;;20.10;76.00;;;;;;4932563;29;20215;-67
2023/06/12 05:35:44;;;;;;;0.80;0.80;;;20.10;75.80;;;;;;4948627;28;20221;-67
2023/06/12 05:38:11;;;;;;;0.90;0.90;;;20.10;75.60;;;;;;4930878;29;20295;-66
2023/06/12 05:40:40;;;;;;;0.93;0.90;;;20.10;75.40;;;;;;4932777;29;20212;-67
2023/06/12 05:43:17;;;;;;;0.80;0.80;;;20.10;75.10;;;;;;4921990;29;20288;-66
2023/06/12 05:45:44;;;;;;;0.85;0.80;;;20.10;74.90;;;;;;4932872;29;20211;-66
2023/06/12 05:48:11;;;;;;;1.08;1.00;;;20.20;74.70;;;;;;4942115;29;20619;-67
2023/06/12 05:50:38;;;;;;;1.02;1.00;;;20.20;73.90;;;;;;4940570;28;20221;-67
2023/06/12 05:53:06;;;;;;;2.85;0.95;;;20.20;73.50;;;;;;4919855;29;20239;-67
2023/06/12 05:55:33;;;;;;;0.73;0.73;;;20.30;73.40;;;;;;4926537;29;20749;-67
2023/06/12 05:58:00;;;;;;;0.90;0.90;;;20.30;73.30;;;;;;4928594;28;20220;-66
2023/06/12 06:00:29;;;;;;;1.00;1.00;;;20.30;73.00;;;;;;4955363;28;20288;-67
2023/06/12 06:03:04;;;;;;;2.33;0.90;;;20.40;72.90;;;;;;4931160;29;20306;-66
2023/06/12 06:05:34;;;;;;;0.90;0.90;;;20.50;72.50;;;;;;4952899;28;20201;-66
2023/06/12 06:08:12;;;;;;;0.77;0.77;;;20.40;72.30;;;;;;4933290;29;20297;-67
2023/06/12 06:10:44;;;;;;;0.60;0.60;;;20.50;72.40;;;;;;4932033;29;20221;-66
2023/06/12 06:13:13;;;;;;;0.77;0.77;;;20.60;72.40;;;;;;4932505;29;20296;-67
2023/06/12 06:15:42;;;;;;;0.85;0.85;;;20.60;72.40;;;;;;4935086;29;20212;-67
2023/06/12 06:18:10;;;;;;;1.10;0.90;;;20.60;72.00;;;;;;4934500;29;20193;-67
2023/06/12 06:20:39;;;;;;;0.80;0.80;;;20.60;72.00;;;;;;4941235;28;20209;-67
2023/06/12 06:23:06;;;;;;;0.82;0.82;;;20.70;71.90;;;;;;4936430;29;20264;-67
2023/06/12 06:25:35;;;;;;;2.45;0.98;;;20.80;71.40;;;;;;4935732;29;20295;-67
2023/06/12 06:28:02;;;;;;;3.15;1.25;;;20.80;71.00;;;;;;4956167;28;20304;-66
2023/06/12 06:30:29;;;;;;;1.08;1.08;;;20.80;69.90;;;;;;4952269;29;20678;-65
2023/06/12 06:32:58;;;;;;;1.00;1.00;;;20.90;69.70;;;;;;4952027;29;20618;-66
2023/06/12 06:35:25;;;;;;;1.05;1.05;;;20.90;69.70;;;;;;4955218;28;20205;-65
2023/06/12 06:37:52;;;;;;;1.05;0.75;;;20.90;69.70;;;;;;4947939;28;20689;-64
2023/06/12 06:40:19;;;;;;;1.00;1.00;;;21.00;69.60;;;;;;4947520;29;20196;-64
2023/06/12 06:42:47;;;;;;;0.98;0.93;;;21.10;69.50;;;;;;4934944;29;20289;-64
2023/06/12 06:45:20;;;;;;;0.90;0.90;;;21.20;69.00;;;;;;4948782;29;20209;-64
2023/06/12 06:47:49;;;;;;;0.70;0.70;;;21.20;69.00;;;;;;4934772;29;20283;-65
2023/06/12 06:50:19;;;;;;;0.75;0.75;;;21.30;69.20;;;;;;4939663;28;20216;-64
2023/06/12 06:52:47;;;;;;;1.00;1.00;;;21.40;69.30;;;;;;4935302;29;20227;-64
2023/06/12 06:55:15;;;;;;;0.90;0.90;;;21.50;69.50;;;;;;4947931;29;20197;-64
2023/06/12 06:57:43;;;;;;;0.80;0.80;;;21.60;69.60;;;;;;4944161;29;20196;-65
2023/06/12 07:00:12;;;;;;;0.93;0.93;;;21.70;69.60;;;;;;4949991;29;20638;-65
2023/06/12 07:02:42;;;;;;;0.88;0.88;;;21.80;69.50;;;;;;4922251;29;20745;-64
2023/06/12 07:05:11;;;;;;;0.85;0.80;;;21.80;69.40;;;;;;4935278;29;20209;-65
2023/06/12 07:07:40;;;;;;;0.82;0.82;;;21.90;69.30;;;;;;4924620;29;20208;-65
2023/06/12 07:10:08;;;;;;;0.65;0.60;;;22.00;69.20;;;;;;4948304;29;20309;-65
2023/06/12 07:12:36;;;;;;;0.60;0.60;;;22.00;69.00;;;;;;4926360;29;20373;-64
2023/06/12 07:15:04;;;;;;;1.17;0.60;;;22.10;68.80;;;;;;4935489;29;20221;-63
2023/06/12 07:17:31;;;;;;;0.60;0.60;;;22.10;68.50;;;;;;4944129;29;20205;-65
2023/06/12 07:19:59;;;;;;;0.70;0.70;;;22.10;68.30;;;;;;4950389;29;20216;-65
2023/06/12 07:22:27;;;;;;;0.70;0.70;;;22.20;68.30;;;;;;4933920;29;20197;-64
2023/06/12 07:24:56;;;;;;;0.80;0.80;;;22.20;68.20;;;;;;4952667;29;20237;-65
2023/06/12 07:27:23;;;;;;;0.70;0.70;;;22.20;68.30;;;;;;4929682;29;20398;-64
2023/06/12 07:29:50;;;;;;;2.30;0.75;;;22.30;68.40;;;;;;4952589;29;20213;-65
2023/06/12 07:32:17;;;;;;;0.82;0.82;;;22.30;68.40;;;;;;4948866;28;20717;-65
2023/06/12 07:34:45;;;;;;;0.60;0.60;;;22.40;68.50;;;;;;4934281;29;20671;-65
2023/06/12 07:37:12;;;;;;;0.90;0.70;;;22.60;68.70;;;;;;4943241;29;20205;-64
2023/06/12 07:39:40;;;;;;;0.57;0.57;;;22.40;68.60;;;;;;4919417;29;20255;-64
2023/06/12 07:42:10;;;;;;;0.70;0.70;;;22.50;68.60;;;;;;4932745;29;20661;-65
2023/06/12 07:44:40;;;;;;;0.85;0.82;;;22.50;68.60;;;;;;4934917;29;20828;-65
2023/06/12 07:47:08;;;;;;;0.68;0.60;;;22.60;68.60;;;;;;4928600;29;20281;-65
2023/06/12 07:49:35;;;;;;;0.73;0.73;;;22.60;68.40;;;;;;4956431;28;20299;-65
2023/06/12 07:52:02;;;;;;;0.80;0.80;;;22.60;68.30;;;;;;4928858;29;20226;-65
2023/06/12 07:54:29;;;;;;;0.70;0.70;;;22.60;68.00;;;;;;4928413;28;20232;-65
2023/06/12 07:56:57;;;;;;;1.13;0.80;;;22.70;67.90;;;;;;4925603;28;20226;-65
2023/06/12 07:59:26;;;;;;;0.57;0.57;;;22.70;67.70;;;;;;4932717;29;20560;-64
2023/06/12 08:01:58;;;;;;;0.93;0.60;;;22.80;67.40;;;;;;4949633;28;20213;-65
2023/06/12 08:04:26;;;;;;;0.60;0.60;;;22.80;67.20;;;;;;4938058;29;20677;-65
2023/06/12 08:06:54;;;;;;;0.82;0.80;;;22.90;67.00;;;;;;4933645;29;20638;-65
2023/06/12 08:09:24;;;;;;;0.77;0.65;;;22.80;66.60;;;;;;4933017;29;20210;-65
2023/06/12 08:11:51;;;;;;;0.80;0.80;;;22.90;66.20;;;;;;4950524;29;20217;-65
2023/06/12 08:14:19;;;;;;;1.00;1.00;;;22.90;65.90;;;;;;4933444;29;20221;-65
2023/06/12 08:16:49;;;;;;;0.93;0.93;;;22.90;64.90;;;;;;4934085;29;20296;-64
2023/06/12 08:19:16;;;;;;;0.80;0.80;;;22.90;64.00;;;;;;4932843;29;20205;-65
2023/06/12 08:21:43;;;;;;;3.33;0.95;;;23.00;63.80;;;;;;4933509;29;20201;-64
2023/06/12 08:24:12;;;;;;;1.50;0.90;;;23.00;63.00;;;;;;4949337;29;20201;-66
2023/06/12 08:26:40;;;;;;;0.90;0.90;;;23.10;63.00;;;;;;4950828;29;20208;-65
2023/06/12 08:29:08;;;;;;;0.90;0.88;;;23.10;62.80;;;;;;4956266;28;20316;-64
2023/06/12 08:31:37;;;;;;;0.70;0.70;;;23.10;62.70;;;;;;4934017;29;20252;-64
2023/06/12 08:34:07;;;;;;;0.80;0.80;;;23.20;62.60;;;;;;4948485;29;20197;-64
2023/06/12 08:36:36;;;;;;;1.52;1.20;;;23.20;62.10;;;;;;4933228;29;20288;-64
2023/06/12 08:39:05;;;;;;;1.10;0.90;;;23.30;61.30;;;;;;4943336;28;20208;-65
2023/06/12 08:48:51;;;;;;;0.90;0.88;;;23.30;60.90;;;;;;4930644;29;20245;-65
2023/06/12 08:51:21;;;;;;;0.80;0.80;;;23.40;60.90;;;;;;4946374;29;20220;-65
2023/06/12 08:53:48;;;;;;;0.63;0.63;;;23.40;60.80;;;;;;4932758;29;20633;-64
2023/06/12 08:56:15;;;;;;;0.98;0.70;;;23.40;60.50;;;;;;4948501;28;20224;-64
2023/06/12 08:58:43;;;;;;;0.70;0.70;;;23.50;60.40;;;;;;4949832;28;20275;-65
2023/06/12 09:01:12;;;;;;;0.98;0.98;;;23.50;60.30;;;;;;4949854;29;20197;-65
2023/06/12 09:03:42;;;;;;;0.82;0.82;;;23.50;60.10;;;;;;4940542;29;20234;-64
2023/06/12 09:06:11;;;;;;;1.35;0.80;;;23.60;60.20;;;;;;4930836;29;20273;-66
2023/06/12 09:08:41;;;;;;;1.20;1.05;;;23.60;60.10;;;;;;4921944;29;20209;-65
2023/06/12 09:11:08;;;;;;;1.33;1.20;;;23.60;60.00;;;;;;4929138;29;20244;-65
2023/06/12 09:13:42;;;;;;;1.80;1.70;;;23.70;59.70;;;;;;4922768;29;20193;-65
2023/06/12 09:16:14;;;;;;;1.83;1.30;;;23.70;59.40;;;;;;4941053;29;20254;-65
2023/06/12 09:18:51;;;;;;;1.50;1.20;;;23.70;59.50;;;;;;4927508;29;20304;-65
2023/06/12 09:21:18;;;;;;;1.20;1.10;;;23.70;59.70;;;;;;4926637;29;20191;-65
2023/06/12 09:23:50;;;;;;;1.23;1.23;;;23.70;59.80;;;;;;4909049;29;20684;-65
2023/06/12 09:26:21;;;;;;;1.10;1.10;;;23.80;60.00;;;;;;4930097;29;20262;-65
2023/06/12 09:28:51;;;;;;;1.40;1.17;;;23.80;60.00;;;;;;4927902;29;20195;-65
2023/06/12 09:31:18;;;;;;;3.05;1.15;;;23.90;60.00;;;;;;4918613;29;20313;-65
2023/06/12 09:33:46;;;;;;;1.00;1.00;;;23.90;60.00;;;;;;4918858;29;20244;-66
2023/06/12 09:36:14;;;;;;;0.90;0.90;;;23.90;59.90;;;;;;4930767;29;20194;-65
2023/06/12 09:38:41;;;;;;;1.98;1.30;;;23.90;59.90;;;;;;4920343;29;20199;-64
2023/06/12 09:41:10;;;;;;;1.20;1.10;;;24.00;59.90;;;;;;4919646;29;20218;-65
2023/06/12 09:43:37;;;;;;;1.85;1.20;;;24.00;59.70;;;;;;4920178;29;20247;-66
2023/06/12 09:46:08;;;;;;;1.35;1.33;;;24.00;59.70;;;;;;4921195;29;20368;-66
2023/06/12 09:48:36;;;;;;;1.85;1.13;;;24.00;59.40;;;;;;4942773;29;20216;-65
2023/06/12 09:51:06;;;;;;;1.33;1.20;;;24.10;59.40;;;;;;4930718;29;20217;-65
2023/06/12 09:53:37;;;;;;;1.23;1.20;;;24.10;59.30;;;;;;4930135;29;20202;-65
2023/06/12 09:56:07;;;;;;;1.60;1.50;;;24.10;59.20;;;;;;4924213;29;20205;-65
2023/06/12 09:58:37;;;;;;;3.45;1.20;;;24.10;59.10;;;;;;4928171;29;20217;-66
2023/06/12 10:01:06;;;;;;;3.65;1.58;;;24.20;59.00;;;;;;4933126;29;20668;-65
2023/06/12 10:03:37;;;;;;;1.40;1.30;;;24.20;58.90;;;;;;4931693;28;20687;-66
2023/06/12 10:06:07;;;;;;;1.50;1.40;;;24.20;58.70;;;;;;4948504;28;20638;-64
2023/06/12 10:19:26;;;;;;;2.40;1.88;;;24.20;58.60;;;;;;4948158;29;20202;-64
2023/06/12 10:21:54;;;;;;;2.05;1.42;;;24.30;58.70;;;;;;4947928;28;20192;-64
2023/06/12 10:24:22;;;;;;;2.92;1.35;;;24.30;58.80;;;;;;4934919;29;20209;-65
2023/06/12 10:26:51;;;;;;;1.88;1.50;;;24.30;58.50;;;;;;4934147;29;20568;-65
2023/06/12 10:29:28;;;;;;;2.53;1.50;;;24.30;58.20;;;;;;4944118;29;20252;-64
2023/06/12 10:32:03;;;;;;;1.80;1.70;;;24.30;57.90;;;;;;4941994;29;20706;-65
2023/06/12 10:34:34;;;;;;;1.42;1.33;;;24.20;57.90;;;;;;4951299;29;20264;-64
2023/06/12 10:37:22;;;;;;;1.45;1.35;;;24.20;58.00;;;;;;4948868;28;20193;-65
2023/06/12 10:40:00;;;;;;;2.70;1.55;;;24.30;58.20;;;;;;4948734;28;20583;-65
2023/06/12 10:42:40;;;;;;;3.45;1.27;;;24.30;58.00;;;;;;4941404;29;20638;-65
2023/06/12 10:45:15;;;;;;;2.08;1.48;;;24.30;57.40;;;;;;4948451;28;20203;-65
2023/06/12 10:47:43;;;;;;;1.60;1.50;;;24.30;57.10;;;;;;4945858;28;20283;-65
2023/06/12 10:50:12;;;;;;;3.08;1.63;;;24.40;57.10;;;;;;4933008;29;20618;-65
2023/06/12 10:52:54;;;;;;;1.50;1.40;;;24.40;57.10;;;;;;4950032;28;20901;-65
2023/06/12 10:55:23;;;;;;;1.55;1.30;;;24.40;56.80;;;;;;4961882;28;20228;-65
2023/06/12 10:57:52;;;;;;;3.38;1.55;;;24.50;56.80;;;;;;4929160;28;20616;-65
2023/06/12 11:00:21;;;;;;;1.27;1.27;;;24.50;55.70;;;;;;4953421;29;20205;-64
2023/06/12 11:02:57;;;;;;;1.45;1.35;;;24.50;55.20;;;;;;4941371;29;20237;-65
2023/06/12 11:05:26;;;;;;;1.25;1.15;;;24.50;55.30;;;;;;4947937;28;20531;-65
2023/06/12 11:07:56;;;;;;;2.80;1.50;;;24.50;55.30;;;;;;4940078;29;20280;-65
2023/06/12 11:10:23;;;;;;;4.78;1.50;;;24.60;54.60;;;;;;4950696;28;20221;-65
2023/06/12 11:12:51;;;;;;;2.97;1.52;;;24.50;52.90;;;;;;4946973;28;20225;-65
2023/06/12 11:15:19;;;;;;;3.65;1.55;;;24.40;52.70;;;;;;4954131;28;20281;-65
2023/06/12 11:17:46;;;;;;;2.38;1.85;;;24.40;52.00;;;;;;4947148;29;20252;-65
2023/06/12 11:20:16;;;;;;;2.08;1.30;;;24.40;52.00;;;;;;4954365;28;20198;-65
2023/06/12 11:22:45;;;;;;;1.35;1.25;;;24.40;52.00;;;;;;4949988;29;20189;-66
2023/06/12 11:25:13;;;;;;;1.40;1.30;;;24.50;52.10;;;;;;4929739;28;20621;-66
2023/06/12 11:27:41;;;;;;;2.58;1.08;;;24.50;51.90;;;;;;4948716;29;20579;-66
2023/06/12 11:30:10;;;;;;;1.27;1.27;;;24.60;52.10;;;;;;4959063;28;20287;-66
2023/06/12 11:32:37;;;;;;;8.52;1.40;;;24.60;52.00;;;;;;4947263;29;20233;-66
2023/06/12 11:35:06;;;;;;;1.38;1.20;;;24.70;51.50;;;;;;4949051;28;20208;-66
2023/06/12 11:37:33;;;;;;;5.18;1.48;;;24.70;51.10;;;;;;4950293;28;20224;-65
2023/06/12 11:40:08;;;;;;;1.10;1.10;;;24.60;50.60;;;;;;4926207;29;20250;-65
2023/06/12 11:42:37;;;;;;;1.35;1.25;;;24.60;50.60;;;;;;4951876;29;20185;-65
2023/06/12 11:45:08;;;;;;;1.55;1.08;;;24.60;50.10;;;;;;4949426;29;20212;-65
2023/06/12 11:47:37;;;;;;;1.65;1.25;;;24.60;49.80;;;;;;4930436;29;20204;-66
2023/06/12 12:18:30;;;;;;;1.20;1.20;;;24.70;48.80;;;;;;4926552;28;20225;-64
2023/06/12 12:20:58;;;;;;;1.17;1.17;;;24.60;48.80;;;;;;4931337;29;20631;-66
2023/06/12 12:23:25;;;;;;;1.42;1.20;;;24.60;48.70;;;;;;4926653;29;20190;-64
2023/06/12 12:26:29;;;;;;;4.05;1.67;;;24.60;48.80;;;;;;4930380;29;20202;-64
2023/06/12 12:28:57;;;;;;;2.22;1.40;;;24.60;48.80;;;;;;4932271;29;20691;-64
2023/06/12 12:31:24;;;;;;;2.53;1.70;;;24.70;49.00;;;;;;4935665;29;20750;-65
2023/06/12 12:33:53;;;;;;;1.33;1.33;;;24.70;49.10;;;;;;4935204;29;20683;-64
2023/06/12 12:36:20;;;;;;;1.50;1.40;;;24.70;48.90;;;;;;4931835;29;20212;-65
2023/06/12 12:38:47;;;;;;;1.20;1.20;;;24.70;49.20;;;;;;4933114;29;20202;-64
2023/06/12 12:41:14;;;;;;;2.60;1.50;;;24.70;49.70;;;;;;4945206;29;20200;-65
2023/06/12 12:43:42;;;;;;;1.58;1.48;;;24.70;50.30;;;;;;4931937;29;20285;-65
2023/06/12 12:46:09;;;;;;;1.45;1.35;;;24.70;50.90;;;;;;4937777;29;20197;-64
2023/06/12 12:48:36;;;;;;;1.48;1.38;;;24.70;51.40;;;;;;4937546;29;20280;-64
2023/06/12 12:55:37;;;;;;;1.48;1.38;;;24.70;52.00;;;;;;4925441;28;20276;-64
2023/06/12 12:58:05;;;;;;;1.35;1.25;;;24.70;52.20;;;;;;4931725;29;20206;-64
2023/06/12 13:00:33;;;;;;;1.30;1.20;;;24.70;52.40;;;;;;4934940;29;20698;-64
2023/06/12 13:03:00;;;;;;;1.45;1.40;;;24.70;52.70;;;;;;4930900;29;20198;-64
2023/06/12 13:05:27;;;;;;;1.52;1.42;;;24.70;52.50;;;;;;4930917;29;20269;-64
2023/06/12 13:07:55;;;;;;;2.13;1.30;;;24.70;52.40;;;;;;4937486;29;20284;-64
2023/06/12 13:10:22;;;;;;;1.23;1.20;;;24.70;52.30;;;;;;4932025;29;20711;-65
2023/06/12 13:12:54;;;;;;;1.40;1.23;;;24.70;52.10;;;;;;4931920;29;20215;-65
2023/06/12 13:15:29;;;;;;;2.20;1.17;;;24.80;52.20;;;;;;4931181;29;20679;-65
2023/06/12 13:17:57;;;;;;;1.33;1.23;;;24.80;52.00;;;;;;4929894;29;20205;-65
2023/06/12 13:20:25;;;;;;;2.75;1.23;;;24.80;51.70;;;;;;4929705;29;20572;-65
2023/06/12 13:22:52;;;;;;;1.02;1.02;;;24.90;51.60;;;;;;4930952;29;20260;-65
2023/06/12 13:25:20;;;;;;;1.02;1.02;;;24.90;51.50;;;;;;4929685;29;20281;-65
2023/06/12 13:27:47;;;;;;;1.10;1.10;;;25.00;51.40;;;;;;4925530;29;20206;-65
2023/06/12 13:30:14;;;;;;;1.30;1.20;;;24.90;51.50;;;;;;4932170;29;20654;-65
2023/06/12 13:32:42;;;;;;;1.00;1.00;;;24.90;51.20;;;;;;4930485;29;20252;-65
2023/06/12 13:35:10;;;;;;;1.10;1.10;;;24.90;51.30;;;;;;4939808;29;20551;-64
2023/06/12 13:57:15;;;;;;;1.10;1.10;;;24.70;50.80;;;;;;4949831;29;20489;-65
2023/06/12 13:59:42;;;;;;;1.52;1.50;;;24.70;50.60;;;;;;4936290;29;20702;-65
2023/06/12 14:02:10;;;;;;;1.27;1.17;;;24.60;50.40;;;;;;4931435;29;20296;-65
2023/06/12 14:04:37;;;;;;;1.67;1.23;;;24.60;50.30;;;;;;4920402;29;20205;-65
2023/06/12 14:07:04;;;;;;;1.05;1.05;;;24.50;50.10;;;;;;4949030;29;20248;-65
2023/06/12 14:09:32;;;;;;;1.05;1.05;;;24.50;50.00;;;;;;4931460;29;20610;-64
2023/06/12 14:11:59;;;;;;;2.05;1.10;;;24.50;50.00;;;;;;4949410;29;20221;-64